<?xml version="1.0" encoding="UTF-8" standalone="no" ?>
<gpx xmlns="http://www.topografix.com/GPX/1/1" xmlns:xsi="http://www.w3.org/2001/XMLSchema-instance" xsi:schemaLocation="http://www.topografix.com/GPX/1/1 http://www.topografix.com/GPX/1/1/gpx.xsd" version="1.1" creator="VisuGPX - https://www.visugpx.com">
  <metadata>
    <name>Boucle Villelaure optimisée</name>
  </metadata>
  <trk>
    <name><![CDATA[Boucle Villelaure optimisée]]></name>
    <trkseg>
      <trkpt lat="43.7179" lon="5.43003">
        <ele>200.097</ele>
        <time>2021-02-14T14:38:23Z</time>
      </trkpt>
      <trkpt lat="43.71815" lon="5.42993">
        <ele>193.823</ele>
        <time>2021-02-14T14:39:35Z</time>
      </trkpt>
      <trkpt lat="43.71852" lon="5.43071">
        <ele>191.225</ele>
        <time>2021-02-14T14:39:59Z</time>
      </trkpt>
      <trkpt lat="43.71783" lon="5.43172">
        <ele>188.408</ele>
        <time>2021-02-14T14:40:24Z</time>
      </trkpt>
      <trkpt lat="43.7177" lon="5.4333">
        <ele>186.885</ele>
        <time>2021-02-14T14:42:16Z</time>
      </trkpt>
      <trkpt lat="43.7167" lon="5.43265">
        <ele>197.864</ele>
        <time>2021-02-14T14:49:26Z</time>
      </trkpt>
      <trkpt lat="43.71551" lon="5.4324">
        <ele>199.647</ele>
        <time>2021-02-14T14:50:02Z</time>
      </trkpt>
      <trkpt lat="43.71515" lon="5.43309">
        <ele>202.079</ele>
        <time>2021-02-14T14:50:21Z</time>
      </trkpt>
      <trkpt lat="43.71474" lon="5.43492">
        <ele>205.497</ele>
        <time>2021-02-14T14:50:52Z</time>
      </trkpt>
      <trkpt lat="43.71405" lon="5.43532">
        <ele>208.098</ele>
        <time>2021-02-14T14:51:09Z</time>
      </trkpt>
      <trkpt lat="43.71491" lon="5.43633">
        <ele>213.665</ele>
        <time>2021-02-14T14:51:37Z</time>
      </trkpt>
      <trkpt lat="43.71531" lon="5.43868">
        <ele>229.849</ele>
        <time>2021-02-14T14:52:21Z</time>
      </trkpt>
      <trkpt lat="43.71589" lon="5.44078">
        <ele>245.863</ele>
        <time>2021-02-14T14:53:04Z</time>
      </trkpt>
      <trkpt lat="43.71599" lon="5.4413">
        <ele>259.871</ele>
        <time>2021-02-14T14:54:06Z</time>
      </trkpt>
      <trkpt lat="43.71592" lon="5.44143">
        <ele>260.664</ele>
        <time>2021-02-14T14:54:10Z</time>
      </trkpt>
      <trkpt lat="43.7155" lon="5.44058">
        <ele>276</ele>
      </trkpt>
      <trkpt lat="43.71493" lon="5.44008">
        <ele>267.694</ele>
        <time>2021-02-14T14:54:48Z</time>
      </trkpt>
      <trkpt lat="43.71462" lon="5.44001">
        <ele>269.465</ele>
        <time>2021-02-14T14:54:56Z</time>
      </trkpt>
      <trkpt lat="43.71435" lon="5.44189">
        <ele>282.252</ele>
        <time>2021-02-14T14:55:39Z</time>
      </trkpt>
      <trkpt lat="43.71434" lon="5.44444">
        <ele>300.276</ele>
        <time>2021-02-14T14:56:36Z</time>
      </trkpt>
      <trkpt lat="43.71457" lon="5.44491">
        <ele>304.456</ele>
        <time>2021-02-14T14:56:50Z</time>
      </trkpt>
      <trkpt lat="43.71586" lon="5.44628">
        <ele>319.659</ele>
        <time>2021-02-14T14:57:42Z</time>
      </trkpt>
      <trkpt lat="43.71592" lon="5.44857">
        <ele>331.614</ele>
        <time>2021-02-14T14:58:25Z</time>
      </trkpt>
      <trkpt lat="43.7162" lon="5.44963">
        <ele>336.208</ele>
        <time>2021-02-14T14:58:45Z</time>
      </trkpt>
      <trkpt lat="43.7165" lon="5.45021">
        <ele>339.251</ele>
        <time>2021-02-14T14:58:58Z</time>
      </trkpt>
      <trkpt lat="43.71693" lon="5.45059">
        <ele>342.28</ele>
        <time>2021-02-14T14:59:11Z</time>
      </trkpt>
      <trkpt lat="43.71846" lon="5.45064">
        <ele>347.243</ele>
        <time>2021-02-14T14:59:43Z</time>
      </trkpt>
      <trkpt lat="43.72013" lon="5.45224">
        <ele>352.235</ele>
        <time>2021-02-14T15:00:28Z</time>
      </trkpt>
      <trkpt lat="43.72049" lon="5.45336">
        <ele>354.243</ele>
        <time>2021-02-14T15:00:45Z</time>
      </trkpt>
      <trkpt lat="43.7205" lon="5.45389">
        <ele>355.054</ele>
        <time>2021-02-14T15:00:53Z</time>
      </trkpt>
      <trkpt lat="43.7203" lon="5.45422">
        <ele>355.831</ele>
        <time>2021-02-14T15:01:01Z</time>
      </trkpt>
      <trkpt lat="43.72046" lon="5.45557">
        <ele>357.485</ele>
        <time>2021-02-14T15:01:19Z</time>
      </trkpt>
      <trkpt lat="43.72098" lon="5.45662">
        <ele>357.843</ele>
        <time>2021-02-14T15:01:35Z</time>
      </trkpt>
      <trkpt lat="43.72155" lon="5.45737">
        <ele>357.864</ele>
        <time>2021-02-14T15:01:50Z</time>
      </trkpt>
      <trkpt lat="43.72171" lon="5.45867">
        <ele>362.01</ele>
        <time>2021-02-14T15:02:23Z</time>
      </trkpt>
      <trkpt lat="43.72108" lon="5.45898">
        <ele>363.808</ele>
        <time>2021-02-14T15:02:40Z</time>
      </trkpt>
      <trkpt lat="43.72066" lon="5.459">
        <ele>364.02</ele>
        <time>2021-02-14T15:02:48Z</time>
      </trkpt>
      <trkpt lat="43.72032" lon="5.45947">
        <ele>364.019</ele>
        <time>2021-02-14T15:02:58Z</time>
      </trkpt>
      <trkpt lat="43.7198" lon="5.45925">
        <ele>363.882</ele>
        <time>2021-02-14T15:03:09Z</time>
      </trkpt>
      <trkpt lat="43.71923" lon="5.45962">
        <ele>363.874</ele>
        <time>2021-02-14T15:03:23Z</time>
      </trkpt>
      <trkpt lat="43.71854" lon="5.45985">
        <ele>364.072</ele>
        <time>2021-02-14T15:03:42Z</time>
      </trkpt>
      <trkpt lat="43.71837" lon="5.46039">
        <ele>364.243</ele>
        <time>2021-02-14T15:03:52Z</time>
      </trkpt>
      <trkpt lat="43.71792" lon="5.46055">
        <ele>364.04</ele>
        <time>2021-02-14T15:04:02Z</time>
      </trkpt>
      <trkpt lat="43.71764" lon="5.46091">
        <ele>363.624</ele>
        <time>2021-02-14T15:04:12Z</time>
      </trkpt>
      <trkpt lat="43.71778" lon="5.46182">
        <ele>345.284</ele>
        <time>2021-02-14T15:08:47Z</time>
      </trkpt>
      <trkpt lat="43.71756" lon="5.4628">
        <ele>319.407</ele>
        <time>2021-02-14T15:14:32Z</time>
      </trkpt>
      <trkpt lat="43.71671" lon="5.46248">
        <ele>317.817</ele>
        <time>2021-02-14T15:17:35Z</time>
      </trkpt>
      <trkpt lat="43.71673" lon="5.46282">
        <ele>316.208</ele>
        <time>2021-02-14T15:17:47Z</time>
      </trkpt>
      <trkpt lat="43.71691" lon="5.46303">
        <ele>314.264</ele>
        <time>2021-02-14T15:17:58Z</time>
      </trkpt>
      <trkpt lat="43.71672" lon="5.46374">
        <ele>308.443</ele>
        <time>2021-02-14T15:18:26Z</time>
      </trkpt>
      <trkpt lat="43.71682" lon="5.4644">
        <ele>301.666</ele>
        <time>2021-02-14T15:18:56Z</time>
      </trkpt>
      <trkpt lat="43.7161" lon="5.46549">
        <ele>293.648</ele>
        <time>2021-02-14T15:19:33Z</time>
      </trkpt>
      <trkpt lat="43.71621" lon="5.46488">
        <ele>287.846</ele>
        <time>2021-02-14T15:20:06Z</time>
      </trkpt>
      <trkpt lat="43.7161" lon="5.46452">
        <ele>286.087</ele>
        <time>2021-02-14T15:20:15Z</time>
      </trkpt>
      <trkpt lat="43.71459" lon="5.46528">
        <ele>281.054</ele>
        <time>2021-02-14T15:20:46Z</time>
      </trkpt>
      <trkpt lat="43.71434" lon="5.46467">
        <ele>278.238</ele>
        <time>2021-02-14T15:21:01Z</time>
      </trkpt>
      <trkpt lat="43.71428" lon="5.46392">
        <ele>276.655</ele>
        <time>2021-02-14T15:21:14Z</time>
      </trkpt>
      <trkpt lat="43.71388" lon="5.4624">
        <ele>274.207</ele>
        <time>2021-02-14T15:21:37Z</time>
      </trkpt>
      <trkpt lat="43.71332" lon="5.46126">
        <ele>272.217</ele>
        <time>2021-02-14T15:22:00Z</time>
      </trkpt>
      <trkpt lat="43.7125" lon="5.4605">
        <ele>273.608</ele>
        <time>2021-02-14T15:22:28Z</time>
      </trkpt>
      <trkpt lat="43.71165" lon="5.46024">
        <ele>273.481</ele>
        <time>2021-02-14T15:22:50Z</time>
      </trkpt>
      <trkpt lat="43.71131" lon="5.45998">
        <ele>274.05</ele>
        <time>2021-02-14T15:23:02Z</time>
      </trkpt>
      <trkpt lat="43.71111" lon="5.45981">
        <ele>274.073</ele>
        <time>2021-02-14T15:23:09Z</time>
      </trkpt>
      <trkpt lat="43.71097" lon="5.45916">
        <ele>274.845</ele>
        <time>2021-02-14T15:23:28Z</time>
      </trkpt>
      <trkpt lat="43.71077" lon="5.45916">
        <ele>276.043</ele>
        <time>2021-02-14T15:23:37Z</time>
      </trkpt>
      <trkpt lat="43.70973" lon="5.45833">
        <ele>279.444</ele>
        <time>2021-02-14T15:24:14Z</time>
      </trkpt>
      <trkpt lat="43.70905" lon="5.45688">
        <ele>269.491</ele>
        <time>2021-02-14T15:25:48Z</time>
      </trkpt>
      <trkpt lat="43.70844" lon="5.45631">
        <ele>260.665</ele>
        <time>2021-02-14T15:26:13Z</time>
      </trkpt>
      <trkpt lat="43.70845" lon="5.4557">
        <ele>236.438</ele>
        <time>2021-02-14T15:27:19Z</time>
      </trkpt>
      <trkpt lat="43.70796" lon="5.4554">
        <ele>226.87</ele>
        <time>2021-02-14T15:28:23Z</time>
      </trkpt>
      <trkpt lat="43.70797" lon="5.45473">
        <ele>224.817</ele>
        <time>2021-02-14T15:28:38Z</time>
      </trkpt>
      <trkpt lat="43.70738" lon="5.45425">
        <ele>221.608</ele>
        <time>2021-02-14T15:28:56Z</time>
      </trkpt>
      <trkpt lat="43.70695" lon="5.45349">
        <ele>218.289</ele>
        <time>2021-02-14T15:29:13Z</time>
      </trkpt>
      <trkpt lat="43.70517" lon="5.45276">
        <ele>211.888</ele>
        <time>2021-02-14T15:29:47Z</time>
      </trkpt>
      <trkpt lat="43.70478" lon="5.45304">
        <ele>210.031</ele>
        <time>2021-02-14T15:29:56Z</time>
      </trkpt>
      <trkpt lat="43.70418" lon="5.45278">
        <ele>207.463</ele>
        <time>2021-02-14T15:30:07Z</time>
      </trkpt>
      <trkpt lat="43.7039" lon="5.4532">
        <ele>205.871</ele>
        <time>2021-02-14T15:30:14Z</time>
      </trkpt>
      <trkpt lat="43.70285" lon="5.45407">
        <ele>201.692</ele>
        <time>2021-02-14T15:30:35Z</time>
      </trkpt>
      <trkpt lat="43.70277" lon="5.45436">
        <ele>200.889</ele>
        <time>2021-02-14T15:30:39Z</time>
      </trkpt>
      <trkpt lat="43.70291" lon="5.45534">
        <ele>198.033</ele>
        <time>2021-02-14T15:30:54Z</time>
      </trkpt>
      <trkpt lat="43.70335" lon="5.45585">
        <ele>196.677</ele>
        <time>2021-02-14T15:31:09Z</time>
      </trkpt>
      <trkpt lat="43.70306" lon="5.45702">
        <ele>196.261</ele>
        <time>2021-02-14T15:31:30Z</time>
      </trkpt>
      <trkpt lat="43.70308" lon="5.45855">
        <ele>198.227</ele>
        <time>2021-02-14T15:32:01Z</time>
      </trkpt>
      <trkpt lat="43.7026" lon="5.46123">
        <ele>203.808</ele>
        <time>2021-02-14T15:32:48Z</time>
      </trkpt>
      <trkpt lat="43.7026" lon="5.46235">
        <ele>206.083</ele>
        <time>2021-02-14T15:33:07Z</time>
      </trkpt>
      <trkpt lat="43.70284" lon="5.46321">
        <ele>207.462</ele>
        <time>2021-02-14T15:33:20Z</time>
      </trkpt>
      <trkpt lat="43.70272" lon="5.46359">
        <ele>207.825</ele>
        <time>2021-02-14T15:33:25Z</time>
      </trkpt>
      <trkpt lat="43.70299" lon="5.46676">
        <ele>211.017</ele>
        <time>2021-02-14T15:34:07Z</time>
      </trkpt>
      <trkpt lat="43.70258" lon="5.46952">
        <ele>216.485</ele>
        <time>2021-02-14T15:34:48Z</time>
      </trkpt>
      <trkpt lat="43.70288" lon="5.47002">
        <ele>218.256</ele>
        <time>2021-02-14T15:34:59Z</time>
      </trkpt>
      <trkpt lat="43.70436" lon="5.46984">
        <ele>222.873</ele>
        <time>2021-02-14T15:35:40Z</time>
      </trkpt>
      <trkpt lat="43.70482" lon="5.46995">
        <ele>225.627</ele>
        <time>2021-02-14T15:36:00Z</time>
      </trkpt>
      <trkpt lat="43.7052" lon="5.47031">
        <ele>242.041</ele>
        <time>2021-02-14T15:37:56Z</time>
      </trkpt>
      <trkpt lat="43.7055" lon="5.47021">
        <ele>245.481</ele>
        <time>2021-02-14T15:38:12Z</time>
      </trkpt>
      <trkpt lat="43.70565" lon="5.4715">
        <ele>263.809</ele>
        <time>2021-02-14T15:39:55Z</time>
      </trkpt>
      <trkpt lat="43.70552" lon="5.47252">
        <ele>270.408</ele>
        <time>2021-02-14T15:40:25Z</time>
      </trkpt>
      <trkpt lat="43.70568" lon="5.47292">
        <ele>274.68</ele>
        <time>2021-02-14T15:40:41Z</time>
      </trkpt>
      <trkpt lat="43.70607" lon="5.47322">
        <ele>278.019</ele>
        <time>2021-02-14T15:41:01Z</time>
      </trkpt>
      <trkpt lat="43.70624" lon="5.47313">
        <ele>279.092</ele>
        <time>2021-02-14T15:41:10Z</time>
      </trkpt>
      <trkpt lat="43.70691" lon="5.47352">
        <ele>291</ele>
      </trkpt>
      <trkpt lat="43.70732" lon="5.47331">
        <ele>295.8</ele>
      </trkpt>
      <trkpt lat="43.70815" lon="5.4742">
        <ele>297.5</ele>
      </trkpt>
      <trkpt lat="43.7079" lon="5.47503">
        <ele>293.9</ele>
      </trkpt>
      <trkpt lat="43.70789" lon="5.47576">
        <ele>288.4</ele>
      </trkpt>
      <trkpt lat="43.7076" lon="5.47653">
        <ele>278.2</ele>
      </trkpt>
      <trkpt lat="43.70793" lon="5.47735">
        <ele>283.5</ele>
      </trkpt>
      <trkpt lat="43.7083" lon="5.47798">
        <ele>283.6</ele>
      </trkpt>
      <trkpt lat="43.7085" lon="5.47819">
        <ele>284</ele>
      </trkpt>
      <trkpt lat="43.70879" lon="5.4787">
        <ele>285.2</ele>
      </trkpt>
      <trkpt lat="43.70903" lon="5.47957">
        <ele>287.6</ele>
      </trkpt>
      <trkpt lat="43.70932" lon="5.4799">
        <ele>293.8</ele>
      </trkpt>
      <trkpt lat="43.70954" lon="5.48022">
        <ele>297.9</ele>
      </trkpt>
      <trkpt lat="43.70954" lon="5.48064">
        <ele>296.6</ele>
      </trkpt>
      <trkpt lat="43.7093" lon="5.48098">
        <ele>290.9</ele>
      </trkpt>
      <trkpt lat="43.70931" lon="5.48124">
        <ele>291.5</ele>
      </trkpt>
      <trkpt lat="43.70954" lon="5.48176">
        <ele>296.6</ele>
      </trkpt>
      <trkpt lat="43.70974" lon="5.48214">
        <ele>296.5</ele>
      </trkpt>
      <trkpt lat="43.71019" lon="5.48247">
        <ele>297.9</ele>
      </trkpt>
      <trkpt lat="43.71056" lon="5.48286">
        <ele>295.7</ele>
      </trkpt>
      <trkpt lat="43.71079" lon="5.48311">
        <ele>295.5</ele>
      </trkpt>
      <trkpt lat="43.71106" lon="5.48289">
        <ele>302.5</ele>
      </trkpt>
      <trkpt lat="43.71107" lon="5.48312">
        <ele>301.2</ele>
      </trkpt>
      <trkpt lat="43.71141" lon="5.48347">
        <ele>307.5</ele>
      </trkpt>
      <trkpt lat="43.71138" lon="5.48385">
        <ele>304.3</ele>
      </trkpt>
      <trkpt lat="43.71163" lon="5.48439">
        <ele>303.8</ele>
      </trkpt>
      <trkpt lat="43.71207" lon="5.48468">
        <ele>303</ele>
      </trkpt>
      <trkpt lat="43.71275" lon="5.48453">
        <ele>311.9</ele>
      </trkpt>
      <trkpt lat="43.71327" lon="5.48458">
        <ele>313.3</ele>
      </trkpt>
      <trkpt lat="43.71357" lon="5.4845">
        <ele>317.3</ele>
      </trkpt>
      <trkpt lat="43.71379" lon="5.48481">
        <ele>316.8</ele>
      </trkpt>
      <trkpt lat="43.71366" lon="5.48517">
        <ele>311.1</ele>
      </trkpt>
      <trkpt lat="43.7136" lon="5.48553">
        <ele>306.6</ele>
      </trkpt>
      <trkpt lat="43.71369" lon="5.48588">
        <ele>305.7</ele>
      </trkpt>
      <trkpt lat="43.71383" lon="5.48616">
        <ele>307</ele>
      </trkpt>
      <trkpt lat="43.71381" lon="5.48628">
        <ele>305.1</ele>
      </trkpt>
      <trkpt lat="43.71397" lon="5.48686">
        <ele>301.9</ele>
      </trkpt>
      <trkpt lat="43.71434" lon="5.48723">
        <ele>301.9</ele>
      </trkpt>
      <trkpt lat="43.71493" lon="5.48729">
        <ele>308.2</ele>
      </trkpt>
      <trkpt lat="43.71535" lon="5.48703">
        <ele>314.8</ele>
      </trkpt>
      <trkpt lat="43.7155" lon="5.48715">
        <ele>314.4</ele>
      </trkpt>
      <trkpt lat="43.71666" lon="5.48571">
        <ele>325.6</ele>
      </trkpt>
      <trkpt lat="43.71688" lon="5.48523">
        <ele>327.5</ele>
      </trkpt>
      <trkpt lat="43.71524" lon="5.48357">
        <ele>331.7</ele>
      </trkpt>
      <trkpt lat="43.71493" lon="5.48271">
        <ele>330.9</ele>
      </trkpt>
      <trkpt lat="43.71563" lon="5.48214">
        <ele>327.3</ele>
      </trkpt>
      <trkpt lat="43.71603" lon="5.48182">
        <ele>305.639</ele>
        <time>2021-02-14T15:51:33Z</time>
      </trkpt>
      <trkpt lat="43.71711" lon="5.48126">
        <ele>313.44</ele>
        <time>2021-02-14T15:52:08Z</time>
      </trkpt>
      <trkpt lat="43.71727" lon="5.48151">
        <ele>315.467</ele>
        <time>2021-02-14T15:52:18Z</time>
      </trkpt>
      <trkpt lat="43.71778" lon="5.4815">
        <ele>317.441</ele>
        <time>2021-02-14T15:52:35Z</time>
      </trkpt>
      <trkpt lat="43.71904" lon="5.48233">
        <ele>319.065</ele>
        <time>2021-02-14T15:53:02Z</time>
      </trkpt>
      <trkpt lat="43.71995" lon="5.48173">
        <ele>320.668</ele>
        <time>2021-02-14T15:53:26Z</time>
      </trkpt>
      <trkpt lat="43.72036" lon="5.48253">
        <ele>321.014</ele>
        <time>2021-02-14T15:53:39Z</time>
      </trkpt>
      <trkpt lat="43.72112" lon="5.48187">
        <ele>317.408</ele>
        <time>2021-02-14T15:53:58Z</time>
      </trkpt>
      <trkpt lat="43.72195" lon="5.47989">
        <ele>308.282</ele>
        <time>2021-02-14T15:54:32Z</time>
      </trkpt>
      <trkpt lat="43.72181" lon="5.47885">
        <ele>302.891</ele>
        <time>2021-02-14T15:54:49Z</time>
      </trkpt>
      <trkpt lat="43.72201" lon="5.47856">
        <ele>300.434</ele>
        <time>2021-02-14T15:54:59Z</time>
      </trkpt>
      <trkpt lat="43.72164" lon="5.4769">
        <ele>291.456</ele>
        <time>2021-02-14T15:55:40Z</time>
      </trkpt>
      <trkpt lat="43.72182" lon="5.4767">
        <ele>290.824</ele>
        <time>2021-02-14T15:55:47Z</time>
      </trkpt>
      <trkpt lat="43.72218" lon="5.47661">
        <ele>290.055</ele>
        <time>2021-02-14T15:55:56Z</time>
      </trkpt>
      <trkpt lat="43.72302" lon="5.47713">
        <ele>292.212</ele>
        <time>2021-02-14T15:56:25Z</time>
      </trkpt>
      <trkpt lat="43.72416" lon="5.47696">
        <ele>296.856</ele>
        <time>2021-02-14T15:56:57Z</time>
      </trkpt>
      <trkpt lat="43.72463" lon="5.47721">
        <ele>299.869</ele>
        <time>2021-02-14T15:57:12Z</time>
      </trkpt>
      <trkpt lat="43.72507" lon="5.47768">
        <ele>303.804</ele>
        <time>2021-02-14T15:57:28Z</time>
      </trkpt>
      <trkpt lat="43.72546" lon="5.47771">
        <ele>307.624</ele>
        <time>2021-02-14T15:57:41Z</time>
      </trkpt>
      <trkpt lat="43.72588" lon="5.47749">
        <ele>312.208</ele>
        <time>2021-02-14T15:57:57Z</time>
      </trkpt>
      <trkpt lat="43.72612" lon="5.477">
        <ele>315.222</ele>
        <time>2021-02-14T15:58:10Z</time>
      </trkpt>
      <trkpt lat="43.72607" lon="5.47624">
        <ele>321.421</ele>
        <time>2021-02-14T15:58:34Z</time>
      </trkpt>
      <trkpt lat="43.72765" lon="5.47617">
        <ele>337.634</ele>
        <time>2021-02-14T15:59:27Z</time>
      </trkpt>
      <trkpt lat="43.7292" lon="5.47643">
        <ele>360.816</ele>
        <time>2021-02-14T16:00:37Z</time>
      </trkpt>
      <trkpt lat="43.7292" lon="5.47436">
        <ele>368.644</ele>
        <time>2021-02-14T16:01:10Z</time>
      </trkpt>
      <trkpt lat="43.72984" lon="5.47271">
        <ele>373.495</ele>
        <time>2021-02-14T16:01:35Z</time>
      </trkpt>
      <trkpt lat="43.73015" lon="5.47136">
        <ele>374.442</ele>
        <time>2021-02-14T16:01:49Z</time>
      </trkpt>
      <trkpt lat="43.73011" lon="5.47059">
        <ele>376.226</ele>
        <time>2021-02-14T16:02:03Z</time>
      </trkpt>
      <trkpt lat="43.73057" lon="5.46876">
        <ele>377.636</ele>
        <time>2021-02-14T16:03:02Z</time>
      </trkpt>
      <trkpt lat="43.73067" lon="5.46549">
        <ele>375.617</ele>
        <time>2021-02-14T16:03:50Z</time>
      </trkpt>
      <trkpt lat="43.73056" lon="5.46524">
        <ele>375.018</ele>
        <time>2021-02-14T16:03:54Z</time>
      </trkpt>
      <trkpt lat="43.72986" lon="5.4652">
        <ele>373.008</ele>
        <time>2021-02-14T16:04:10Z</time>
      </trkpt>
      <trkpt lat="43.72989" lon="5.46445">
        <ele>370.699</ele>
        <time>2021-02-14T16:04:22Z</time>
      </trkpt>
      <trkpt lat="43.72869" lon="5.46627">
        <ele>364.068</ele>
        <time>2021-02-14T16:05:00Z</time>
      </trkpt>
      <trkpt lat="43.72773" lon="5.46559">
        <ele>361.041</ele>
        <time>2021-02-14T16:05:15Z</time>
      </trkpt>
      <trkpt lat="43.7253" lon="5.4651">
        <ele>357.633</ele>
        <time>2021-02-14T16:05:55Z</time>
      </trkpt>
      <trkpt lat="43.72445" lon="5.46467">
        <ele>357.841</ele>
        <time>2021-02-14T16:06:10Z</time>
      </trkpt>
      <trkpt lat="43.72362" lon="5.46414">
        <ele>358.812</ele>
        <time>2021-02-14T16:06:26Z</time>
      </trkpt>
      <trkpt lat="43.72327" lon="5.4635">
        <ele>359.499</ele>
        <time>2021-02-14T16:06:36Z</time>
      </trkpt>
      <trkpt lat="43.72284" lon="5.46147">
        <ele>361.223</ele>
        <time>2021-02-14T16:07:01Z</time>
      </trkpt>
      <trkpt lat="43.72205" lon="5.45943">
        <ele>361.477</ele>
        <time>2021-02-14T16:07:26Z</time>
      </trkpt>
      <trkpt lat="43.72167" lon="5.45718">
        <ele>361.061</ele>
        <time>2021-02-14T16:07:51Z</time>
      </trkpt>
      <trkpt lat="43.72077" lon="5.45569">
        <ele>359.427</ele>
        <time>2021-02-14T16:08:08Z</time>
      </trkpt>
      <trkpt lat="43.72037" lon="5.45286">
        <ele>358.808</ele>
        <time>2021-02-14T16:08:41Z</time>
      </trkpt>
      <trkpt lat="43.71993" lon="5.45171">
        <ele>359.283</ele>
        <time>2021-02-14T16:08:56Z</time>
      </trkpt>
      <trkpt lat="43.71985" lon="5.45067">
        <ele>359.012</ele>
        <time>2021-02-14T16:09:30Z</time>
      </trkpt>
      <trkpt lat="43.72019" lon="5.44937">
        <ele>355.655</ele>
        <time>2021-02-14T16:10:10Z</time>
      </trkpt>
      <trkpt lat="43.72021" lon="5.44852">
        <ele>354.057</ele>
        <time>2021-02-14T16:10:34Z</time>
      </trkpt>
      <trkpt lat="43.71998" lon="5.44836">
        <ele>353.265</ele>
        <time>2021-02-14T16:10:46Z</time>
      </trkpt>
      <trkpt lat="43.71989" lon="5.44704">
        <ele>351.296</ele>
        <time>2021-02-14T16:11:12Z</time>
      </trkpt>
      <trkpt lat="43.71957" lon="5.44634">
        <ele>350.023</ele>
        <time>2021-02-14T16:11:23Z</time>
      </trkpt>
      <trkpt lat="43.71997" lon="5.44526">
        <ele>347.067</ele>
        <time>2021-02-14T16:11:40Z</time>
      </trkpt>
      <trkpt lat="43.72001" lon="5.44463">
        <ele>344.486</ele>
        <time>2021-02-14T16:11:45Z</time>
      </trkpt>
      <trkpt lat="43.71953" lon="5.44297">
        <ele>331.46</ele>
        <time>2021-02-14T16:12:20Z</time>
      </trkpt>
      <trkpt lat="43.71845" lon="5.4402">
        <ele>320.826</ele>
        <time>2021-02-14T16:13:09Z</time>
      </trkpt>
      <trkpt lat="43.71827" lon="5.4384">
        <ele>317.608</ele>
        <time>2021-02-14T16:14:31Z</time>
      </trkpt>
      <trkpt lat="43.71782" lon="5.4375">
        <ele>315.074</ele>
        <time>2021-02-14T16:14:50Z</time>
      </trkpt>
      <trkpt lat="43.71764" lon="5.43747">
        <ele>314.023</ele>
        <time>2021-02-14T16:14:55Z</time>
      </trkpt>
      <trkpt lat="43.71756" lon="5.43707">
        <ele>311.636</ele>
        <time>2021-02-14T16:15:02Z</time>
      </trkpt>
      <trkpt lat="43.71738" lon="5.43694">
        <ele>310.078</ele>
        <time>2021-02-14T16:15:07Z</time>
      </trkpt>
      <trkpt lat="43.71707" lon="5.43622">
        <ele>303.886</ele>
        <time>2021-02-14T16:15:20Z</time>
      </trkpt>
      <trkpt lat="43.71651" lon="5.4355">
        <ele>273.057</ele>
        <time>2021-02-14T16:16:37Z</time>
      </trkpt>
      <trkpt lat="43.71638" lon="5.43441">
        <ele>263.434</ele>
        <time>2021-02-14T16:16:54Z</time>
      </trkpt>
      <trkpt lat="43.71597" lon="5.43362">
        <ele>255.658</ele>
        <time>2021-02-14T16:17:08Z</time>
      </trkpt>
      <trkpt lat="43.71585" lon="5.43302">
        <ele>248.298</ele>
        <time>2021-02-14T16:17:21Z</time>
      </trkpt>
      <trkpt lat="43.71547" lon="5.43256">
        <ele>241.215</ele>
        <time>2021-02-14T16:17:35Z</time>
      </trkpt>
      <trkpt lat="43.71548" lon="5.43237">
        <ele>238.826</ele>
        <time>2021-02-14T16:17:39Z</time>
      </trkpt>
      <trkpt lat="43.71601" lon="5.43262">
        <ele>229.408</ele>
        <time>2021-02-14T16:17:59Z</time>
      </trkpt>
      <trkpt lat="43.71673" lon="5.43415">
        <ele>219.845</ele>
        <time>2021-02-14T16:18:35Z</time>
      </trkpt>
      <trkpt lat="43.71811" lon="5.4362">
        <ele>222.654</ele>
        <time>2021-02-14T16:20:31Z</time>
      </trkpt>
      <trkpt lat="43.71825" lon="5.43629">
        <ele>223.267</ele>
        <time>2021-02-14T16:20:35Z</time>
      </trkpt>
      <trkpt lat="43.71873" lon="5.436">
        <ele>224.289</ele>
        <time>2021-02-14T16:20:50Z</time>
      </trkpt>
      <trkpt lat="43.71947" lon="5.43609">
        <ele>224.257</ele>
        <time>2021-02-14T16:21:05Z</time>
      </trkpt>
      <trkpt lat="43.71975" lon="5.43636">
        <ele>223.858</ele>
        <time>2021-02-14T16:21:14Z</time>
      </trkpt>
      <trkpt lat="43.72033" lon="5.43656">
        <ele>221.665</ele>
        <time>2021-02-14T16:21:29Z</time>
      </trkpt>
      <trkpt lat="43.72092" lon="5.43767">
        <ele>217.899</ele>
        <time>2021-02-14T16:21:49Z</time>
      </trkpt>
      <trkpt lat="43.72115" lon="5.43764">
        <ele>216.689</ele>
        <time>2021-02-14T16:21:54Z</time>
      </trkpt>
      <trkpt lat="43.72141" lon="5.43687">
        <ele>213.406</ele>
        <time>2021-02-14T16:22:03Z</time>
      </trkpt>
      <trkpt lat="43.72207" lon="5.43611">
        <ele>208.626</ele>
        <time>2021-02-14T16:22:15Z</time>
      </trkpt>
      <trkpt lat="43.72028" lon="5.43412">
        <ele>192.808</ele>
        <time>2021-02-14T16:23:23Z</time>
      </trkpt>
      <trkpt lat="43.7181" lon="5.42986">
        <ele>185.044</ele>
        <time>2021-02-14T16:24:40Z</time>
      </trkpt>
    </trkseg>
  </trk>
</gpx>